Time;durP1;ratioP1;P1;durP2;ratioP2;P2;SDS_P1;SDS_P2;PMS_P1;PMS_P2;Temp;Humidity;BMP_temperature;BMP_pressure;BME280_temperature;BME280_humidity;BME280_pressure;Samples;Min_cycle;Max_cycle;Signal;HPM_P1;HPM_P2
2023/04/17 00:23:46;;;;;;;11.80;6.90;;;;;;;;;;5933747;23;20028;31
2023/04/17 00:34:43;;;;;;;8.00;6.60;;;;;;;;;;5642322;23;20261;31
2023/04/17 01:12:32;;;;;;;12.23;8.65;;;;;;;;;;4866839;23;20817;-89
2023/04/17 01:17:48;;;;;;;11.70;9.27;;;;;;;;;;5411306;23;20470;-92
2023/04/17 02:18:13;;;;;;;16.20;10.57;;;;;;;;;;5937471;23;20027;31
2023/04/17 03:33:05;;;;;;;15.57;11.57;;;;;;;;;;5375467;23;20132;31
2023/04/17 04:33:12;;;;;;;13.77;10.85;;;;;;;;;;4734479;23;20027;-90
2023/04/17 04:55:16;;;;;;;14.77;11.40;;;;;;;;;;5969721;23;20043;31
2023/04/17 05:00:42;;;;;;;16.58;12.13;;;;;;;;;;5497349;23;20057;-91
2023/04/17 05:03:12;;;;;;;16.05;11.93;;;;;;;;;;5280967;23;20053;-93
2023/04/17 05:08:30;;;;;;;15.98;12.25;;;;;;;;;;5357080;23;20028;-91
2023/04/17 05:11:07;;;;;;;15.27;11.32;;;;;;;;;;5515377;23;20040;31
2023/04/17 05:13:37;;;;;;;14.40;10.70;;;;;;;;;;5186267;23;21047;-90
2023/04/17 05:16:17;;;;;;;14.05;10.90;;;;;;;;;;5428061;23;20110;31
2023/04/17 05:26:54;;;;;;;14.77;10.38;;;;;;;;;;5204935;23;20075;-91
2023/04/17 05:29:26;;;;;;;12.50;9.63;;;;;;;;;;4903831;29;20063;-94
2023/04/17 05:32:34;;;;;;;12.57;10.23;;;;;;;;;;5135526;23;20900;-96
2023/04/17 05:37:54;;;;;;;12.20;10.60;;;;;;;;;;4916820;23;20060;-95
2023/04/17 05:40:29;;;;;;;13.02;10.55;;;;;;;;;;4903392;29;20390;-92
2023/04/17 05:42:55;;;;;;;11.93;9.85;;;;;;;;;;4903165;29;20068;-95
2023/04/17 05:45:47;;;;;;;11.93;10.00;;;;;;;;;;4904239;29;20124;-92
2023/04/17 05:48:18;;;;;;;12.13;9.65;;;;;;;;;;4902485;29;20029;-91
2023/04/17 05:50:45;;;;;;;12.95;10.15;;;;;;;;;;4905066;29;20410;-90
2023/04/17 05:53:39;;;;;;;14.77;10.07;;;;;;;;;;4904753;29;20029;-92
2023/04/17 05:56:05;;;;;;;14.52;10.45;;;;;;;;;;4896806;29;20097;-90
2023/04/17 05:58:35;;;;;;;14.38;9.90;;;;;;;;;;4913184;29;20040;-92
2023/04/17 06:01:19;;;;;;;14.35;10.57;;;;;;;;;;4911059;29;20047;-92
2023/04/17 06:04:31;;;;;;;13.68;10.45;;;;;;;;;;4912678;29;20052;-90
2023/04/17 06:15:22;;;;;;;13.68;10.90;;;;;;;;;;4897585;29;20120;-90
2023/04/17 06:18:07;;;;;;;14.55;11.02;;;;;;;;;;4897060;29;20052;-90
2023/04/17 06:20:48;;;;;;;15.35;10.18;;;;;;;;;;4900130;29;20039;-89
2023/04/17 06:23:17;;;;;;;15.43;11.23;;;;;;;;;;4909055;29;20052;-92
2023/04/17 06:25:49;;;;;;;21.70;17.90;;;;;;;;;;4911069;29;20058;-91
2023/04/17 06:28:25;;;;;;;16.52;11.68;;;;;;;;;;4898427;29;20021;-90
2023/04/17 06:31:23;;;;;;;19.85;15.32;;;;;;;;;;5280470;23;20996;-91
2023/04/17 06:33:55;;;;;;;15.52;12.73;;;;;;;;;;4886649;29;20056;-91
2023/04/17 06:36:27;;;;;;;31.02;25.38;;;;;;;;;;4885998;29;20041;-90
2023/04/17 06:38:59;;;;;;;15.85;12.35;;;;;;;;;;4885629;29;20039;-91
2023/04/17 06:41:26;;;;;;;16.38;12.77;;;;;;;;;;4872937;29;20104;-91
2023/04/17 06:43:57;;;;;;;15.50;11.10;;;;;;;;;;4886580;29;20566;-91
2023/04/17 06:49:26;;;;;;;14.77;12.05;;;;;;;;;;4860817;29;20022;-94
2023/04/17 06:55:08;;;;;;;15.98;12.23;;;;;;;;;;4863594;29;20072;-95
2023/04/17 07:04:11;;;;;;;13.82;10.68;;;;;;;;;;4859707;29;20499;-89
2023/04/17 07:14:52;;;;;;;11.80;9.90;;;;;;;;;;4893832;23;20053;-88
2023/04/17 07:17:18;;;;;;;12.55;9.73;;;;;;;;;;4893571;29;20039;-88
2023/04/17 07:19:44;;;;;;;13.93;9.73;;;;;;;;;;4893089;29;20040;-87
2023/04/17 07:22:10;;;;;;;11.90;10.23;;;;;;;;;;4893794;29;20288;-88
2023/04/17 07:24:37;;;;;;;12.27;10.02;;;;;;;;;;4893022;29;20029;-87
2023/04/17 07:27:03;;;;;;;12.98;10.30;;;;;;;;;;4897018;29;20045;-86
2023/04/17 07:29:29;;;;;;;12.23;9.98;;;;;;;;;;4877804;29;20032;-86
2023/04/17 07:31:55;;;;;;;12.60;10.27;;;;;;;;;;4877803;29;20029;-88
2023/04/17 07:34:24;;;;;;;13.27;10.45;;;;;;;;;;4877191;29;20120;-89
2023/04/17 07:36:50;;;;;;;12.70;9.77;;;;;;;;;;4878724;29;20169;-88
2023/04/17 07:39:16;;;;;;;12.32;10.02;;;;;;;;;;4877590;29;20040;-89
2023/04/17 07:41:43;;;;;;;13.38;11.23;;;;;;;;;;4878114;29;20025;-88
2023/04/17 07:44:09;;;;;;;10.70;9.60;;;;;;;;;;4876947;29;20044;-89
2023/04/17 07:46:35;;;;;;;12.07;9.45;;;;;;;;;;4878197;29;20033;-89
2023/04/17 07:49:01;;;;;;;10.45;9.15;;;;;;;;;;4877866;29;20032;-90
2023/04/17 07:51:27;;;;;;;12.02;8.60;;;;;;;;;;4877359;29;20060;-89
2023/04/17 07:53:54;;;;;;;11.02;9.30;;;;;;;;;;4877681;29;20037;-87
2023/04/17 07:56:20;;;;;;;11.52;9.32;;;;;;;;;;4876853;29;20077;-89
2023/04/17 07:58:50;;;;;;;9.48;8.20;;;;;;;;;;4882097;29;20080;-89
2023/04/17 08:01:16;;;;;;;10.77;8.38;;;;;;;;;;4882405;29;20041;-88
2023/04/17 08:03:43;;;;;;;12.02;8.40;;;;;;;;;;4882403;29;20034;-87
2023/04/17 08:06:09;;;;;;;10.85;8.18;;;;;;;;;;4880960;29;20092;-90
2023/04/17 08:08:36;;;;;;;9.95;7.35;;;;;;;;;;4882032;29;20080;-89
2023/04/17 08:11:02;;;;;;;10.65;8.05;;;;;;;;;;4882382;29;20553;-90
2023/04/17 08:13:33;;;;;;;9.90;7.95;;;;;;;;;;4877369;29;20056;-89
2023/04/17 08:16:00;;;;;;;11.07;8.40;;;;;;;;;;4898258;23;20020;-90
2023/04/17 08:18:26;;;;;;;10.23;8.88;;;;;;;;;;4896999;29;20025;-90
2023/04/17 08:20:52;;;;;;;10.82;8.48;;;;;;;;;;4905685;29;20035;-89
2023/04/17 08:23:18;;;;;;;13.13;11.38;;;;;;;;;;4915983;29;20070;-88
2023/04/17 08:25:45;;;;;;;11.18;9.25;;;;;;;;;;4916400;29;20033;-90
2023/04/17 08:28:11;;;;;;;10.95;9.70;;;;;;;;;;4901564;29;20125;-90
2023/04/17 08:30:37;;;;;;;11.18;8.80;;;;;;;;;;4896968;29;20432;-89
2023/04/17 08:33:03;;;;;;;9.77;7.90;;;;;;;;;;4896940;29;20033;-89
2023/04/17 08:35:29;;;;;;;12.23;9.45;;;;;;;;;;4897060;29;20487;-88
2023/04/17 08:37:57;;;;;;;10.63;9.02;;;;;;;;;;4898513;29;20029;-89
2023/04/17 08:40:26;;;;;;;11.00;8.95;;;;;;;;;;4906016;29;20053;-90
2023/04/17 08:42:52;;;;;;;9.55;8.52;;;;;;;;;;4896771;29;20045;-90
2023/04/17 08:45:19;;;;;;;10.20;8.57;;;;;;;;;;4896473;29;20036;-89
2023/04/17 08:47:46;;;;;;;9.70;8.18;;;;;;;;;;4896322;29;20080;-90
2023/04/17 08:50:13;;;;;;;9.77;8.60;;;;;;;;;;4896527;29;20040;-88
2023/04/17 08:52:57;;;;;;;9.20;7.72;;;;;;;;;;4895784;29;20029;-89
2023/04/17 08:55:24;;;;;;;9.05;8.15;;;;;;;;;;4896054;29;20032;-89
2023/04/17 08:57:56;;;;;;;10.50;8.80;;;;;;;;;;4896372;29;20033;-89
2023/04/17 09:00:32;;;;;;;11.63;8.57;;;;;;;;;;4896346;29;20163;-90
2023/04/17 09:02:59;;;;;;;10.52;9.07;;;;;;;;;;4896531;29;20096;-88
2023/04/17 09:05:29;;;;;;;11.05;9.30;;;;;;;;;;4895817;29;20029;-88
2023/04/17 09:08:12;;;;;;;9.68;8.27;;;;;;;;;;4896001;29;20029;-89
2023/04/17 09:10:39;;;;;;;9.50;8.00;;;;;;;;;;4896553;29;20428;-89
2023/04/17 09:13:05;;;;;;;13.32;8.70;;;;;;;;;;4896273;29;20036;-88
2023/04/17 09:15:32;;;;;;;10.88;8.30;;;;;;;;;;4880232;29;20097;-88
2023/04/17 09:17:58;;;;;;;10.95;8.05;;;;;;;;;;4895578;29;20108;-91
2023/04/17 09:20:25;;;;;;;11.00;8.18;;;;;;;;;;4895878;29;20111;-88
2023/04/17 09:23:01;;;;;;;9.52;8.52;;;;;;;;;;4890303;29;20029;-88
2023/04/17 09:25:28;;;;;;;12.95;8.80;;;;;;;;;;4884373;29;20056;-88
2023/04/17 09:27:54;;;;;;;9.68;8.52;;;;;;;;;;4894074;29;20025;-90
2023/04/17 09:30:21;;;;;;;9.25;8.30;;;;;;;;;;4894692;29;20033;-88
2023/04/17 09:32:48;;;;;;;9.95;8.57;;;;;;;;;;4878658;29;20032;-88
2023/04/17 09:35:24;;;;;;;9.10;8.00;;;;;;;;;;4888787;29;20129;-86
2023/04/17 09:37:55;;;;;;;9.85;8.77;;;;;;;;;;4879767;29;20033;-89
2023/04/17 09:40:21;;;;;;;10.05;8.90;;;;;;;;;;4886662;29;20093;-88
2023/04/17 09:42:58;;;;;;;9.48;8.20;;;;;;;;;;4885296;29;20052;-89
2023/04/17 09:45:25;;;;;;;10.80;9.43;;;;;;;;;;4885128;29;20036;-92
2023/04/17 09:47:54;;;;;;;11.35;8.82;;;;;;;;;;4879513;29;20424;-89
2023/04/17 09:56:13;;;;;;;9.88;8.88;;;;;;;;;;4880505;29;19941;-88
2023/04/17 09:58:40;;;;;;;10.60;9.05;;;;;;;;;;4879607;29;20550;-88
2023/04/17 10:01:08;;;;;;;10.63;8.82;;;;;;;;;;4878489;29;20021;-87
2023/04/17 10:03:34;;;;;;;10.43;9.32;;;;;;;;;;4889308;29;20076;-88
2023/04/17 10:06:00;;;;;;;10.90;8.95;;;;;;;;;;4879981;29;20120;-88
2023/04/17 10:08:27;;;;;;;10.07;8.93;;;;;;;;;;4879665;29;20486;-88
2023/04/17 10:11:02;;;;;;;11.00;9.73;;;;;;;;;;4878954;29;20040;-90
2023/04/17 10:13:28;;;;;;;10.70;9.60;;;;;;;;;;4879366;29;20381;-89
2023/04/17 10:15:54;;;;;;;10.98;9.88;;;;;;;;;;4878495;29;20128;-89
2023/04/17 10:18:24;;;;;;;9.90;8.90;;;;;;;;;;4879015;29;20036;-90
2023/04/17 10:20:52;;;;;;;10.77;9.68;;;;;;;;;;4878317;29;20561;-90
2023/04/17 10:23:31;;;;;;;10.52;9.30;;;;;;;;;;4880350;29;20040;-88
2023/04/17 10:26:16;;;;;;;13.52;10.00;;;;;;;;;;4880334;29;20033;-89
2023/04/17 10:28:47;;;;;;;8.77;7.88;;;;;;;;;;4894212;29;20036;-88
2023/04/17 10:31:13;;;;;;;12.95;9.38;;;;;;;;;;4894100;29;20475;-88
2023/04/17 10:33:53;;;;;;;10.70;8.55;;;;;;;;;;4893949;29;20033;-88
2023/04/17 10:36:37;;;;;;;11.32;8.57;;;;;;;;;;4894194;29;20063;-88
2023/04/17 10:39:13;;;;;;;9.95;8.95;;;;;;;;;;4893829;29;20486;-88
2023/04/17 10:41:58;;;;;;;10.25;9.02;;;;;;;;;;4884291;29;20177;-89
2023/04/17 10:44:24;;;;;;;12.13;9.52;;;;;;;;;;4879235;29;20398;-88
2023/04/17 10:46:50;;;;;;;12.80;10.98;;;;;;;;;;4879086;29;20033;-89
2023/04/17 10:49:17;;;;;;;11.27;10.00;;;;;;;;;;4878626;29;20036;-88
2023/04/17 10:51:43;;;;;;;11.15;10.02;;;;;;;;;;4885102;29;20089;-88
2023/04/17 10:54:09;;;;;;;11.98;10.77;;;;;;;;;;4879655;29;20029;-87
2023/04/17 10:56:40;;;;;;;14.02;10.68;;;;;;;;;;4894902;29;20033;-89
2023/04/17 10:59:10;;;;;;;12.52;10.80;;;;;;;;;;4895587;29;20029;-89
2023/04/17 11:01:36;;;;;;;12.02;10.68;;;;;;;;;;4894447;29;20032;-93
2023/04/17 11:04:06;;;;;;;11.93;10.73;;;;;;;;;;4893689;29;20040;-88
2023/04/17 11:06:36;;;;;;;12.43;11.18;;;;;;;;;;4893884;29;20084;-87
2023/04/17 11:09:05;;;;;;;13.82;11.00;;;;;;;;;;4895016;29;20069;-89
2023/04/17 11:11:36;;;;;;;12.35;11.07;;;;;;;;;;4894538;29;20025;-95
2023/04/17 11:14:05;;;;;;;12.38;11.00;;;;;;;;;;4893823;29;20029;-89
2023/04/17 11:16:31;;;;;;;11.40;10.25;;;;;;;;;;4892762;29;20136;-89
2023/04/17 11:18:57;;;;;;;12.30;11.05;;;;;;;;;;4893881;29;20041;-89
2023/04/17 11:21:23;;;;;;;11.63;10.30;;;;;;;;;;4896620;29;20077;-89
2023/04/17 11:23:51;;;;;;;12.27;10.93;;;;;;;;;;4881823;29;20395;-87
2023/04/17 11:26:18;;;;;;;12.93;10.50;;;;;;;;;;4898138;29;20020;-88
2023/04/17 11:28:44;;;;;;;11.65;9.90;;;;;;;;;;4878551;29;20045;-87
2023/04/17 11:31:12;;;;;;;12.30;10.50;;;;;;;;;;4880799;29;20187;-87
2023/04/17 11:33:38;;;;;;;13.07;9.82;;;;;;;;;;4884609;29;20395;-88
2023/04/17 11:36:05;;;;;;;11.45;9.23;;;;;;;;;;4885694;29;20037;-94
2023/04/17 11:38:31;;;;;;;15.25;10.07;;;;;;;;;;4910581;29;20044;-88
2023/04/17 11:40:59;;;;;;;10.90;9.80;;;;;;;;;;4878361;29;20029;-93
2023/04/17 11:43:25;;;;;;;12.55;9.93;;;;;;;;;;4878718;29;20043;-92
2023/04/17 11:45:53;;;;;;;11.85;9.88;;;;;;;;;;4882559;29;20025;-89
2023/04/17 11:48:23;;;;;;;12.38;11.00;;;;;;;;;;4880502;29;20154;-93
2023/04/17 11:50:50;;;;;;;11.95;10.65;;;;;;;;;;4896278;29;20132;-92
2023/04/17 11:53:17;;;;;;;12.00;10.23;;;;;;;;;;4893502;29;20029;-89
2023/04/17 11:55:43;;;;;;;11.80;9.98;;;;;;;;;;4882941;29;20043;-95
2023/04/17 11:58:17;;;;;;;12.77;10.75;;;;;;;;;;4894637;29;20049;-87
2023/04/17 12:00:43;;;;;;;10.90;9.68;;;;;;;;;;4888648;29;20051;-95
2023/04/17 12:03:27;;;;;;;11.93;9.98;;;;;;;;;;4886274;29;20040;-89
2023/04/17 12:06:02;;;;;;;9.93;8.40;;;;;;;;;;4883561;29;20128;-87
2023/04/17 12:09:01;;;;;;;11.40;9.95;;;;;;;;;;4895244;29;20078;-86
2023/04/17 12:11:34;;;;;;;11.05;9.88;;;;;;;;;;4885365;29;20029;-93
2023/04/17 12:14:01;;;;;;;11.07;9.88;;;;;;;;;;4889216;29;20075;-89
2023/04/17 12:16:28;;;;;;;12.27;9.10;;;;;;;;;;4897336;29;20056;-88
2023/04/17 12:18:54;;;;;;;11.48;9.25;;;;;;;;;;4911029;29;20061;-88
2023/04/17 12:21:22;;;;;;;10.27;9.13;;;;;;;;;;4913086;29;20462;-90
2023/04/17 12:23:49;;;;;;;8.98;8.07;;;;;;;;;;4905302;29;20040;-92
2023/04/17 12:26:15;;;;;;;10.27;8.68;;;;;;;;;;4862853;29;20030;-89
2023/04/17 12:28:43;;;;;;;9.90;8.52;;;;;;;;;;4878184;29;20037;-89
2023/04/17 12:34:13;;;;;;;10.45;8.85;;;;;;;;;;4878541;29;20037;-89
2023/04/17 12:39:42;;;;;;;10.05;8.70;;;;;;;;;;4869380;29;20031;-93
2023/04/17 12:42:09;;;;;;;10.60;9.40;;;;;;;;;;4882522;29;20033;-88
2023/04/17 12:44:35;;;;;;;10.88;9.77;;;;;;;;;;4882710;29;20029;-91
2023/04/17 12:47:01;;;;;;;11.43;10.15;;;;;;;;;;4881465;29;20025;-89
2023/04/17 12:49:27;;;;;;;12.32;10.65;;;;;;;;;;4880248;29;20115;-86
2023/04/17 12:51:53;;;;;;;11.63;10.40;;;;;;;;;;4881145;29;20032;-87
2023/04/17 12:54:19;;;;;;;12.23;10.20;;;;;;;;;;4887096;29;20032;-85
2023/04/17 12:56:46;;;;;;;12.13;10.00;;;;;;;;;;4899747;29;20427;-86
2023/04/17 12:59:12;;;;;;;10.88;9.13;;;;;;;;;;4914391;29;20152;-88
2023/04/17 13:01:38;;;;;;;12.27;10.93;;;;;;;;;;4887156;29;20383;-90
2023/04/17 13:04:04;;;;;;;12.60;10.45;;;;;;;;;;4881651;29;20025;-93
2023/04/17 13:06:33;;;;;;;12.93;10.65;;;;;;;;;;4881909;29;20029;-95
2023/04/17 13:08:59;;;;;;;11.57;9.98;;;;;;;;;;4882147;29;20057;-91
2023/04/17 13:11:26;;;;;;;12.20;10.52;;;;;;;;;;4895840;29;20017;-88
2023/04/17 13:13:52;;;;;;;12.27;10.98;;;;;;;;;;4881791;29;20060;-87
2023/04/17 13:16:18;;;;;;;12.70;11.40;;;;;;;;;;4891961;29;20053;-86
2023/04/17 13:18:44;;;;;;;13.10;11.18;;;;;;;;;;4880716;29;20093;-85
2023/04/17 13:21:13;;;;;;;18.00;10.82;;;;;;;;;;4888720;29;20478;-85
2023/04/17 13:23:42;;;;;;;13.25;11.35;;;;;;;;;;4886157;29;20120;-89
2023/04/17 13:26:08;;;;;;;13.15;11.65;;;;;;;;;;4879527;29;20025;-85
2023/04/17 13:28:34;;;;;;;12.57;11.07;;;;;;;;;;4878376;29;20065;-89
2023/04/17 13:31:00;;;;;;;12.77;10.88;;;;;;;;;;4878900;29;20033;-87
2023/04/17 13:33:26;;;;;;;14.00;12.50;;;;;;;;;;4878435;29;20021;-88
2023/04/17 13:35:53;;;;;;;12.38;10.85;;;;;;;;;;4901492;29;20049;-87
2023/04/17 13:38:19;;;;;;;14.75;11.10;;;;;;;;;;4891744;29;20030;-86
2023/04/17 13:40:45;;;;;;;14.05;11.73;;;;;;;;;;4894209;29;20061;-93
2023/04/17 13:43:11;;;;;;;15.05;12.35;;;;;;;;;;4878526;29;20041;-88
2023/04/17 13:45:40;;;;;;;16.38;12.50;;;;;;;;;;4892130;29;20029;-91
2023/04/17 13:48:06;;;;;;;14.90;13.23;;;;;;;;;;4894663;29;20477;-90
2023/04/17 13:50:32;;;;;;;15.52;12.88;;;;;;;;;;4908141;29;20024;-88
2023/04/17 13:52:58;;;;;;;14.82;13.23;;;;;;;;;;4901721;29;20036;-87
2023/04/17 13:55:24;;;;;;;15.35;13.48;;;;;;;;;;4897453;29;20032;-86
2023/04/17 13:57:50;;;;;;;17.38;14.68;;;;;;;;;;4898886;29;20083;-88
2023/04/17 14:00:17;;;;;;;15.13;13.52;;;;;;;;;;4897777;29;20466;-88
2023/04/17 14:02:43;;;;;;;15.57;13.75;;;;;;;;;;4913654;29;20120;-91
2023/04/17 14:05:09;;;;;;;16.27;13.93;;;;;;;;;;4900121;29;20470;-91
2023/04/17 14:07:35;;;;;;;17.17;14.80;;;;;;;;;;4905638;29;20066;-89
2023/04/17 14:10:01;;;;;;;16.80;14.68;;;;;;;;;;4900303;29;20078;-89
2023/04/17 14:12:44;;;;;;;16.50;14.57;;;;;;;;;;4897406;29;20039;-94
2023/04/17 14:15:12;;;;;;;18.98;14.82;;;;;;;;;;4909007;29;20047;-92
2023/04/17 14:17:41;;;;;;;18.90;15.18;;;;;;;;;;4911801;29;20052;-92
2023/04/17 14:20:16;;;;;;;17.73;15.82;;;;;;;;;;4905767;29;20028;-96
2023/04/17 14:22:46;;;;;;;17.45;15.05;;;;;;;;;;4904743;29;20561;-95
2023/04/17 14:25:15;;;;;;;20.08;15.95;;;;;;;;;;4907587;29;20040;-92
2023/04/17 14:27:41;;;;;;;18.42;16.42;;;;;;;;;;4879401;29;20033;-95
2023/04/17 14:35:38;;;;;;;20.40;17.17;;;;;;;;;;4880999;29;20095;-95
2023/04/17 14:38:05;;;;;;;23.02;16.88;;;;;;;;;;4907715;29;20037;-96
2023/04/17 14:40:31;;;;;;;19.52;16.70;;;;;;;;;;4895930;29;20403;-94
2023/04/17 14:42:58;;;;;;;19.85;17.55;;;;;;;;;;4895727;29;20108;-94
2023/04/17 14:45:24;;;;;;;19.83;17.27;;;;;;;;;;4895190;29;20032;-92
2023/04/17 14:47:50;;;;;;;17.55;15.32;;;;;;;;;;4894146;29;20040;-95
2023/04/17 14:50:17;;;;;;;18.25;15.95;;;;;;;;;;4895384;29;20033;-95
2023/04/17 14:52:45;;;;;;;20.13;16.75;;;;;;;;;;4896280;29;20174;-95
2023/04/17 14:55:12;;;;;;;20.60;16.70;;;;;;;;;;4895043;29;20033;-93
2023/04/17 14:57:38;;;;;;;20.75;16.40;;;;;;;;;;4894682;29;20540;-94
2023/04/17 15:00:05;;;;;;;19.23;16.33;;;;;;;;;;4871219;29;20037;-93
2023/04/17 15:02:37;;;;;;;20.67;15.55;;;;;;;;;;4871576;29;20056;-96
2023/04/17 15:05:04;;;;;;;18.48;16.42;;;;;;;;;;4869738;29;20084;-95
2023/04/17 15:07:37;;;;;;;19.52;15.90;;;;;;;;;;4863543;29;20073;-94
2023/04/17 15:10:03;;;;;;;18.85;14.48;;;;;;;;;;4865661;29;20121;-94
2023/04/17 15:15:33;;;;;;;18.13;16.23;;;;;;;;;;4890613;23;20060;-94
2023/04/17 15:21:53;;;;;;;18.00;16.00;;;;;;;;;;4994748;23;20089;-93
2023/04/17 15:35:57;;;;;;;16.73;14.25;;;;;;;;;;5096239;23;20101;-96
2023/04/17 15:50:14;;;;;;;15.75;13.80;;;;;;;;;;4888781;29;20410;-95
2023/04/17 15:56:05;;;;;;;;;;;;;;;;;;;;;
2023/04/17 15:58:46;;;;;;;14.25;12.55;;;;;;;;;;4887937;29;20120;-95
2023/04/17 16:18:46;;;;;;;16.00;13.15;;;;;;;;;;4817554;29;20037;-95
2023/04/17 16:21:22;;;;;;;13.77;11.97;;;;;;;;;;4800007;29;20038;-96
2023/04/17 16:24:03;;;;;;;;;;;;;;;;;;;;;
2023/04/17 16:29:40;;;;;;;13.55;12.00;;;;;;;;;;4841120;27;20530;-94
2023/04/17 16:44:04;;;;;;;14.80;12.90;;;;;;;;;;5542189;23;20070;-96
2023/04/17 16:46:35;;;;;;;15.73;12.77;;;;;;;;;;4841715;29;20041;-94
2023/04/17 16:49:01;;;;;;;16.85;13.52;;;;;;;;;;4840289;29;20086;-93
2023/04/17 16:51:27;;;;;;;16.42;13.68;;;;;;;;;;4827436;29;20075;-93
2023/04/17 16:54:01;;;;;;;15.23;13.55;;;;;;;;;;4830127;29;20030;-93
2023/04/17 16:56:27;;;;;;;;;;;;;;;;;;4826799;29;20512;-91
2023/04/17 16:58:53;;;;;;;17.00;13.73;;;;;;;;;;4825285;29;19913;-96
2023/04/17 17:01:19;;;;;;;15.63;13.43;;;;;;;;;;4824366;29;20053;-94
2023/04/17 17:03:45;;;;;;;17.65;13.25;;;;;;;;;;4830070;29;20053;-93
2023/04/17 17:06:11;;;;;;;14.48;12.98;;;;;;;;;;4834165;29;20037;-94
2023/04/17 17:08:43;;;;;;;15.50;13.13;;;;;;;;;;4836760;29;20120;-94
2023/04/17 17:11:09;;;;;;;15.43;13.27;;;;;;;;;;4835189;29;20022;-94
2023/04/17 17:13:35;;;;;;;15.20;12.73;;;;;;;;;;4831393;29;20038;-94
2023/04/17 17:16:02;;;;;;;14.75;12.52;;;;;;;;;;4841277;29;20022;-92
2023/04/17 17:18:28;;;;;;;16.60;13.52;;;;;;;;;;4846424;29;20049;-93
2023/04/17 17:20:56;;;;;;;17.02;13.85;;;;;;;;;;4833347;29;20034;-93
2023/04/17 17:23:22;;;;;;;15.88;13.50;;;;;;;;;;4833357;29;20504;-94
2023/04/17 17:25:48;;;;;;;15.88;14.18;;;;;;;;;;4827581;29;20030;-94
2023/04/17 17:28:14;;;;;;;17.45;13.80;;;;;;;;;;4827947;29;20063;-95
2023/04/17 17:30:40;;;;;;;17.50;14.63;;;;;;;;;;4847476;29;20048;-93
2023/04/17 17:33:07;;;;;;;18.95;13.60;;;;;;;;;;4837735;29;20026;-94
2023/04/17 17:35:33;;;;;;;17.25;14.82;;;;;;;;;;4828224;29;20050;-95
2023/04/17 17:38:02;;;;;;;16.73;14.02;;;;;;;;;;4812692;29;20022;-96
2023/04/17 17:43:14;;;;;;;;;;;;;;;;;;;;;
2023/04/17 17:45:43;;;;;;;15.13;13.52;;;;;;;;;;4870805;29;20128;-93
2023/04/17 17:48:19;;;;;;;15.60;13.77;;;;;;;;;;4880290;29;20402;-95
2023/04/17 17:51:03;;;;;;;19.58;14.85;;;;;;;;;;4868724;29;20054;-96
2023/04/17 18:02:13;;;;;;;18.65;14.00;;;;;;;;;;4912840;23;20108;-93
2023/04/17 18:05:00;;;;;;;19.23;14.20;;;;;;;;;;4900887;29;20550;-95
2023/04/17 18:07:31;;;;;;;17.30;13.75;;;;;;;;;;4884414;29;20029;-93
2023/04/17 18:10:03;;;;;;;16.48;13.23;;;;;;;;;;4903882;29;20028;-95
2023/04/17 18:12:53;;;;;;;17.30;13.68;;;;;;;;;;4888045;29;20057;-93
2023/04/17 18:15:19;;;;;;;17.00;13.85;;;;;;;;;;4906351;29;20058;-94
2023/04/17 18:17:46;;;;;;;17.20;13.40;;;;;;;;;;4892777;29;20013;-94
2023/04/17 18:20:12;;;;;;;15.98;13.27;;;;;;;;;;4903632;29;20410;-96
2023/04/17 18:22:50;;;;;;;18.23;13.20;;;;;;;;;;4903066;29;20041;-96
2023/04/17 18:25:23;;;;;;;15.65;13.30;;;;;;;;;;4901530;29;20031;-95
2023/04/17 18:27:49;;;;;;;14.38;12.20;;;;;;;;;;4903344;29;20120;-95
2023/04/17 18:30:16;;;;;;;15.27;12.18;;;;;;;;;;4901622;29;20093;-93
2023/04/17 18:32:44;;;;;;;14.85;11.82;;;;;;;;;;4899103;29;20033;-96
2023/04/17 18:35:19;;;;;;;17.30;11.35;;;;;;;;;;4902072;29;20040;-96
2023/04/17 18:37:59;;;;;;;15.45;12.05;;;;;;;;;;4891903;29;20048;-94
2023/04/17 18:43:10;;;;;;;14.70;11.63;;;;;;;;;;4884768;29;20081;-94
2023/04/17 18:45:39;;;;;;;12.77;10.80;;;;;;;;;;4887918;29;20040;-95
2023/04/17 18:48:09;;;;;;;13.65;11.30;;;;;;;;;;4902729;29;20149;-96
2023/04/17 18:50:37;;;;;;;13.15;10.70;;;;;;;;;;4880679;29;20033;-94
2023/04/17 18:53:03;;;;;;;14.98;10.07;;;;;;;;;;4909540;29;20037;-91
2023/04/17 18:55:37;;;;;;;13.45;10.32;;;;;;;;;;4902176;29;20493;-94
2023/04/17 19:00:58;;;;;;;13.05;9.77;;;;;;;;;;4870754;29;20053;-95
2023/04/17 19:03:34;;;;;;;11.98;9.57;;;;;;;;;;4865345;29;20076;-92
2023/04/17 19:09:12;;;;;;;13.00;8.90;;;;;;;;;;5054131;23;20077;-94
2023/04/17 19:11:47;;;;;;;11.45;9.10;;;;;;;;;;4883859;29;20303;-93
2023/04/17 19:14:16;;;;;;;10.88;8.65;;;;;;;;;;4892270;29;20053;-94
2023/04/17 19:17:00;;;;;;;11.18;8.45;;;;;;;;;;4894659;29;20038;-89
2023/04/17 19:20:01;;;;;;;10.07;8.55;;;;;;;;;;4880756;29;20032;-93
2023/04/17 19:22:33;;;;;;;12.43;9.15;;;;;;;;;;4850940;29;20055;-93
2023/04/17 19:25:02;;;;;;;11.55;8.40;;;;;;;;;;4880369;29;20417;-96
2023/04/17 19:27:37;;;;;;;10.90;8.88;;;;;;;;;;4879811;29;20111;-96
2023/04/17 19:30:04;;;;;;;12.10;8.15;;;;;;;;;;4881827;29;20061;-93
2023/04/17 19:32:36;;;;;;;10.43;8.23;;;;;;;;;;4880955;29;20048;-95
2023/04/17 19:38:06;;;;;;;11.02;8.02;;;;;;;;;;4932644;23;20135;-93
2023/04/17 19:40:32;;;;;;;10.43;8.25;;;;;;;;;;4894337;29;20037;-93
2023/04/17 19:43:02;;;;;;;10.80;8.10;;;;;;;;;;4894308;29;20041;-93
2023/04/17 19:48:32;;;;;;;9.70;7.03;;;;;;;;;;4903016;23;20055;-94
2023/04/17 19:54:44;;;;;;;9.98;7.43;;;;;;;;;;4878972;29;20072;-94
2023/04/17 20:03:16;;;;;;;10.25;7.10;;;;;;;;;;4875498;29;20297;-92
2023/04/17 20:05:45;;;;;;;9.43;7.40;;;;;;;;;;4895177;29;20535;-92
2023/04/17 20:08:13;;;;;;;9.93;7.13;;;;;;;;;;4895067;29;20057;-93
2023/04/17 20:10:43;;;;;;;9.27;6.82;;;;;;;;;;4897284;29;20039;-95
2023/04/17 20:13:12;;;;;;;8.32;6.60;;;;;;;;;;4893627;29;20054;-93
2023/04/17 20:15:44;;;;;;;8.73;6.82;;;;;;;;;;4894399;29;20467;-95
2023/04/17 20:18:11;;;;;;;9.82;5.93;;;;;;;;;;4893518;29;20491;-95
2023/04/17 20:20:40;;;;;;;8.68;6.82;;;;;;;;;;4893351;29;20029;-95
2023/04/17 20:23:25;;;;;;;8.60;6.60;;;;;;;;;;4895042;29;20124;-95
2023/04/17 20:25:54;;;;;;;10.20;7.10;;;;;;;;;;4905751;23;20054;-92
2023/04/17 20:28:21;;;;;;;8.30;6.18;;;;;;;;;;4875831;29;20030;-92
2023/04/17 20:33:17;;;;;;;10.20;6.75;;;;;;;;;;4903265;23;20126;-93
2023/04/17 20:35:43;;;;;;;9.43;6.50;;;;;;;;;;4944841;23;20032;-93
2023/04/17 20:38:13;;;;;;;8.35;6.55;;;;;;;;;;4893321;29;20030;-94
2023/04/17 20:43:42;;;;;;;8.83;6.43;;;;;;;;;;4879226;29;20131;-94
2023/04/17 20:55:55;;;;;;;8.80;6.65;;;;;;;;;;4858300;29;20064;-96
2023/04/17 20:58:21;;;;;;;8.32;7.05;;;;;;;;;;4874871;29;20041;-92
2023/04/17 21:00:47;;;;;;;10.10;7.45;;;;;;;;;;4873791;29;20037;-91
2023/04/17 21:03:13;;;;;;;10.80;7.53;;;;;;;;;;4873558;29;20045;-92
2023/04/17 21:05:40;;;;;;;10.93;7.30;;;;;;;;;;4876855;29;20030;-92
2023/04/17 21:08:06;;;;;;;10.05;7.25;;;;;;;;;;4877402;29;20111;-93
2023/04/17 21:10:32;;;;;;;8.55;7.32;;;;;;;;;;4876761;29;20029;-91
2023/04/17 21:12:58;;;;;;;10.65;7.45;;;;;;;;;;4876333;29;20025;-93
2023/04/17 21:15:24;;;;;;;9.60;6.97;;;;;;;;;;4876619;29;20036;-94
2023/04/17 21:17:50;;;;;;;8.98;6.93;;;;;;;;;;4877123;29;20093;-92
2023/04/17 21:20:17;;;;;;;9.60;6.95;;;;;;;;;;4863015;29;20030;-94
2023/04/17 21:22:43;;;;;;;10.00;7.43;;;;;;;;;;4881643;29;20064;-94
2023/04/17 21:25:12;;;;;;;8.45;6.57;;;;;;;;;;4877330;29;20467;-95
2023/04/17 21:27:42;;;;;;;9.85;7.22;;;;;;;;;;4882701;29;20033;-96
2023/04/17 21:30:09;;;;;;;10.60;7.35;;;;;;;;;;4881228;29;20040;-94
2023/04/17 21:32:36;;;;;;;9.75;6.57;;;;;;;;;;4881620;29;20527;-92
2023/04/17 21:35:02;;;;;;;10.05;6.65;;;;;;;;;;4886391;29;20037;-94
2023/04/17 21:37:28;;;;;;;8.40;6.30;;;;;;;;;;4882132;29;20387;-94
2023/04/17 21:39:54;;;;;;;8.77;6.35;;;;;;;;;;4886199;29;20034;-94
2023/04/17 21:42:20;;;;;;;8.95;6.03;;;;;;;;;;4883636;29;20049;-94
2023/04/17 21:44:48;;;;;;;10.73;6.78;;;;;;;;;;4867659;29;20118;-94
2023/04/17 21:47:23;;;;;;;8.48;6.55;;;;;;;;;;4887267;29;20257;-93
2023/04/17 21:49:59;;;;;;;8.75;5.88;;;;;;;;;;4884641;29;20026;-94
2023/04/17 21:52:40;;;;;;;7.82;5.88;;;;;;;;;;4881752;29;20077;-95
2023/04/17 21:55:08;;;;;;;10.05;5.78;;;;;;;;;;4885223;29;20062;-94
2023/04/17 21:58:06;;;;;;;8.70;6.15;;;;;;;;;;4883688;29;20030;-95
2023/04/17 22:00:35;;;;;;;7.93;5.93;;;;;;;;;;4916138;23;20485;-95
2023/04/17 22:03:02;;;;;;;7.60;5.80;;;;;;;;;;4986202;23;20057;-94
2023/04/17 22:05:28;;;;;;;9.80;5.90;;;;;;;;;;4952356;23;20029;-91
2023/04/17 22:07:54;;;;;;;7.35;5.72;;;;;;;;;;4901499;29;20041;-94
2023/04/17 22:10:20;;;;;;;6.63;5.05;;;;;;;;;;4981439;23;20068;-94
2023/04/17 22:12:46;;;;;;;6.35;5.22;;;;;;;;;;4866249;29;20391;-96
2023/04/17 22:15:12;;;;;;;7.20;5.20;;;;;;;;;;4861304;29;20222;-95
2023/04/17 22:17:39;;;;;;;7.07;5.18;;;;;;;;;;5191637;23;20539;-94
2023/04/17 22:22:54;;;;;;;7.82;5.40;;;;;;;;;;4864429;29;20069;-96